Decoded Metar for KGWO (GREENWOOD in MS, USA) (IATA:GWO) | Meteo·Mobile Aviation Weather
aviador You're here:

KGWO Decoded Metar

GREENWOOD in MS, USA
Report Time2019-02-16 06:53:00
UTC Time2019-02-16 07:04:35
Flight Rules lifr LIFR
Wind350° at 07 kt
W.Decomp.*RWY 36: 6.9 kt HW 1.1 kt LCW
RWY 05: 3.6 kt HW 6 kt LCW
RWY 27: 1.1 kt HW 6.9 kt RCW
W.Rank350° ranks 7
Current wind is above 350° avg. (6.3)
Visibility3219 m
Phenomena:Mist
Clouds:Overcast 004 Hf
Expected CloudBase > 400 ft AGL from Temp-Dew spread
Ceiling400 ft
Temp06°C (ISA -9)
Dew Point05°C (93% RH)
AAT2.3°C
QNH1011 hPa
Density Alt-719 ft
Elevation144 ft
Report Wrong Elevation
Raw Report
KGWO 160653Z AUTO 35007KT 2SM BR OVC004 06/05 A2985 RMK AO2 SLP106
T00560050=

Extra information for KGWO:More info

Metar Taf Metar & Taf Last 4 Metars F.Rules Stats Wind Profile Meteogram Temp Stats Airport Information Weather charts Add Link Nearby VenuesMetar ALERT Operation Metar Decoded Social comments

AIRNAV info for KGWO